Time;durP1;ratioP1;P1;durP2;ratioP2;P2;SDS_P1;SDS_P2;PMS_P1;PMS_P2;Temp;Humidity;BMP_temperature;BMP_pressure;BME280_temperature;BME280_humidity;BME280_pressure;Samples;Min_cycle;Max_cycle;Signal;HPM_P1;HPM_P2
2023/07/29 00:01:36;;;;;;;4.50;1.77;;;;;;;;;;5031087;28;20068;-89
2023/07/29 00:04:02;;;;;;;4.32;1.63;;;;;;;;;;5030886;28;20033;-89
2023/07/29 00:06:29;;;;;;;3.88;1.77;;;;;;;;;;5030880;28;20042;-88
2023/07/29 00:08:55;;;;;;;2.88;1.98;;;;;;;;;;5031314;28;20013;-89
2023/07/29 00:11:20;;;;;;;4.85;1.85;;;;;;;;;;5031650;28;20028;-88
2023/07/29 00:13:47;;;;;;;3.22;2.00;;;;;;;;;;5030668;28;20049;-89
2023/07/29 00:16:12;;;;;;;2.35;1.80;;;;;;;;;;5031279;28;20024;-89
2023/07/29 00:18:38;;;;;;;5.50;2.20;;;;;;;;;;5031944;28;20029;-89
2023/07/29 00:21:03;;;;;;;5.47;2.33;;;;;;;;;;5032272;28;20081;-89
2023/07/29 00:23:32;;;;;;;5.00;2.05;;;;;;;;;;5032094;28;20037;-89
2023/07/29 00:25:57;;;;;;;3.10;2.15;;;;;;;;;;5032811;28;20017;-89
2023/07/29 00:28:23;;;;;;;3.00;2.00;;;;;;;;;;5033409;28;20010;-88
2023/07/29 00:30:48;;;;;;;3.70;2.13;;;;;;;;;;5034509;28;20041;-89
2023/07/29 00:33:14;;;;;;;5.07;1.60;;;;;;;;;;5031787;28;20032;-89
2023/07/29 00:35:39;;;;;;;11.18;2.10;;;;;;;;;;5033742;28;20117;-89
2023/07/29 00:38:04;;;;;;;2.83;1.58;;;;;;;;;;5031723;28;20048;-88
2023/07/29 00:40:30;;;;;;;2.85;1.50;;;;;;;;;;5030768;28;20028;-88
2023/07/29 00:42:56;;;;;;;3.42;1.73;;;;;;;;;;5033214;28;20025;-88
2023/07/29 00:45:22;;;;;;;3.53;1.40;;;;;;;;;;5035107;28;20021;-88
2023/07/29 00:47:48;;;;;;;5.38;1.60;;;;;;;;;;5042617;28;20036;-88
2023/07/29 00:50:14;;;;;;;2.22;1.52;;;;;;;;;;5030062;28;20017;-88
2023/07/29 00:52:40;;;;;;;1.88;1.38;;;;;;;;;;5029905;28;20041;-88
2023/07/29 00:55:05;;;;;;;1.45;1.10;;;;;;;;;;5030315;28;20033;-88
2023/07/29 00:57:31;;;;;;;2.25;1.25;;;;;;;;;;5027839;28;20496;-88
2023/07/29 00:59:57;;;;;;;3.58;1.20;;;;;;;;;;5046545;28;20490;-88
2023/07/29 01:02:22;;;;;;;2.10;1.00;;;;;;;;;;5057352;28;20038;-89
2023/07/29 01:04:52;;;;;;;1.52;1.00;;;;;;;;;;5036606;28;20057;-89
2023/07/29 01:07:29;;;;;;;1.88;1.20;;;;;;;;;;5028735;28;20048;-89
2023/07/29 01:10:01;;;;;;;3.40;1.10;;;;;;;;;;5030014;28;20028;-89
2023/07/29 01:12:45;;;;;;;1.83;1.00;;;;;;;;;;5036833;28;20044;-89
2023/07/29 01:15:22;;;;;;;1.58;1.02;;;;;;;;;;5057480;28;20068;-89
2023/07/29 01:18:08;;;;;;;2.33;1.13;;;;;;;;;;5055480;28;20472;-89
2023/07/29 01:20:35;;;;;;;3.67;1.05;;;;;;;;;;5064596;28;20047;-89
2023/07/29 01:23:01;;;;;;;3.13;1.33;;;;;;;;;;5056003;28;20017;-88
2023/07/29 01:25:26;;;;;;;2.28;1.30;;;;;;;;;;5036228;28;20491;-88
2023/07/29 01:27:52;;;;;;;1.70;1.17;;;;;;;;;;5057041;28;20140;-88
2023/07/29 01:30:18;;;;;;;2.80;1.20;;;;;;;;;;5034200;28;20176;-88
2023/07/29 01:32:54;;;;;;;2.08;1.10;;;;;;;;;;5060217;28;20025;-88
2023/07/29 01:35:32;;;;;;;2.72;1.10;;;;;;;;;;5032809;28;20091;-89
2023/07/29 01:38:23;;;;;;;3.88;1.30;;;;;;;;;;5020469;28;20025;-89
2023/07/29 01:40:50;;;;;;;5.53;1.30;;;;;;;;;;5040293;28;20033;-89
2023/07/29 01:43:17;;;;;;;2.15;1.10;;;;;;;;;;5038081;28;20029;-89
2023/07/29 01:45:43;;;;;;;2.10;1.20;;;;;;;;;;5051342;28;20029;-88
2023/07/29 01:48:08;;;;;;;1.90;1.27;;;;;;;;;;5032622;28;20017;-89
2023/07/29 01:50:34;;;;;;;2.47;1.20;;;;;;;;;;5037154;28;20527;-89
2023/07/29 01:52:59;;;;;;;2.28;1.20;;;;;;;;;;5062988;28;20239;-88
2023/07/29 01:55:24;;;;;;;1.85;1.20;;;;;;;;;;5042082;28;20029;-89
2023/07/29 01:57:51;;;;;;;2.78;1.10;;;;;;;;;;5051733;28;20029;-89
2023/07/29 02:00:17;;;;;;;2.63;1.13;;;;;;;;;;5031413;28;20029;-89
2023/07/29 02:02:42;;;;;;;4.75;1.25;;;;;;;;;;5030346;28;20045;-88
2023/07/29 02:05:08;;;;;;;2.00;1.10;;;;;;;;;;5044579;28;20032;-88
2023/07/29 02:07:33;;;;;;;3.03;1.10;;;;;;;;;;5058365;28;20472;-88
2023/07/29 02:09:59;;;;;;;1.85;1.13;;;;;;;;;;5020424;28;20462;-87
2023/07/29 02:12:24;;;;;;;2.05;1.15;;;;;;;;;;5039163;28;20064;-88
2023/07/29 02:14:49;;;;;;;3.42;1.13;;;;;;;;;;5032567;28;20083;-88
2023/07/29 02:17:15;;;;;;;1.67;1.20;;;;;;;;;;5040957;28;20078;-89
2023/07/29 02:19:40;;;;;;;2.33;0.85;;;;;;;;;;5069432;28;20436;-89
2023/07/29 02:22:06;;;;;;;4.63;1.20;;;;;;;;;;5049263;28;20053;-89
2023/07/29 02:24:31;;;;;;;2.05;1.08;;;;;;;;;;5039106;28;20035;-88
2023/07/29 02:26:56;;;;;;;1.70;0.90;;;;;;;;;;5035727;28;20021;-88
2023/07/29 02:29:25;;;;;;;1.98;1.30;;;;;;;;;;5031996;28;20021;-89
2023/07/29 02:31:53;;;;;;;1.35;0.98;;;;;;;;;;5036034;28;20017;-89
2023/07/29 02:34:18;;;;;;;1.35;0.93;;;;;;;;;;5045241;28;20341;-89
2023/07/29 02:36:45;;;;;;;3.03;1.30;;;;;;;;;;5035313;28;20025;-88
2023/07/29 02:39:10;;;;;;;2.78;0.98;;;;;;;;;;5068711;28;20016;-89
2023/07/29 02:41:38;;;;;;;3.20;1.00;;;;;;;;;;5059739;28;20026;-88
2023/07/29 02:44:04;;;;;;;1.75;1.02;;;;;;;;;;5049494;28;20104;-88
2023/07/29 02:46:30;;;;;;;2.00;1.10;;;;;;;;;;5057371;28;20342;-89
2023/07/29 02:48:55;;;;;;;1.55;0.75;;;;;;;;;;5031760;28;20029;-89
2023/07/29 02:51:20;;;;;;;2.47;0.98;;;;;;;;;;5050900;28;20009;-89
2023/07/29 02:53:45;;;;;;;2.28;1.00;;;;;;;;;;5054030;28;20075;-88
2023/07/29 02:56:11;;;;;;;5.85;1.00;;;;;;;;;;5063398;28;20029;-88
2023/07/29 02:58:37;;;;;;;1.63;0.80;;;;;;;;;;5040385;28;20049;-88
2023/07/29 03:01:03;;;;;;;2.10;1.00;;;;;;;;;;5032133;28;20480;-88
2023/07/29 03:03:29;;;;;;;1.77;0.90;;;;;;;;;;5041946;28;20029;-88
2023/07/29 03:06:05;;;;;;;1.40;0.88;;;;;;;;;;5046784;28;20484;-88
2023/07/29 03:08:31;;;;;;;1.70;0.90;;;;;;;;;;5024718;28;20025;-88
2023/07/29 03:10:56;;;;;;;2.95;1.10;;;;;;;;;;5069196;28;20369;-88
2023/07/29 03:13:22;;;;;;;3.53;1.10;;;;;;;;;;5064545;28;20017;-88
2023/07/29 03:15:47;;;;;;;2.20;1.20;;;;;;;;;;5039429;28;20159;-88
2023/07/29 03:18:12;;;;;;;1.40;0.90;;;;;;;;;;5045028;28;20116;-88
2023/07/29 03:20:37;;;;;;;1.35;0.82;;;;;;;;;;5038195;28;20497;-88
2023/07/29 03:23:03;;;;;;;2.53;1.10;;;;;;;;;;5020526;28;20018;-88
2023/07/29 03:25:28;;;;;;;2.67;1.17;;;;;;;;;;5062184;28;20021;-89
2023/07/29 03:27:54;;;;;;;6.88;1.00;;;;;;;;;;5042259;28;20127;-88
2023/07/29 03:30:21;;;;;;;2.85;0.98;;;;;;;;;;5068817;28;20043;-89
2023/07/29 03:32:49;;;;;;;3.65;1.67;;;;;;;;;;5060338;28;20461;-89
2023/07/29 03:35:15;;;;;;;2.47;0.90;;;;;;;;;;5034467;28;20025;-89
2023/07/29 03:37:40;;;;;;;5.18;1.10;;;;;;;;;;5038688;28;20035;-89
2023/07/29 03:40:06;;;;;;;1.75;1.10;;;;;;;;;;5054301;28;20026;-88
2023/07/29 03:42:31;;;;;;;4.20;1.75;;;;;;;;;;5036410;28;20028;-89
2023/07/29 03:44:56;;;;;;;4.00;0.98;;;;;;;;;;5067576;28;20043;-88
2023/07/29 03:47:22;;;;;;;2.28;1.10;;;;;;;;;;5046427;28;20469;-89
2023/07/29 03:49:47;;;;;;;1.35;0.93;;;;;;;;;;5047929;28;20021;-89
2023/07/29 03:52:12;;;;;;;2.58;1.05;;;;;;;;;;5037412;28;20006;-89
2023/07/29 03:54:38;;;;;;;3.95;1.25;;;;;;;;;;5030874;28;20112;-89
2023/07/29 03:57:03;;;;;;;3.25;1.10;;;;;;;;;;5030696;28;20024;-88
2023/07/29 03:59:29;;;;;;;1.58;1.08;;;;;;;;;;5037047;28;20021;-88
2023/07/29 04:01:54;;;;;;;1.83;1.30;;;;;;;;;;5066915;28;20028;-89
2023/07/29 04:04:20;;;;;;;2.30;1.30;;;;;;;;;;5059176;28;20101;-88
2023/07/29 04:06:45;;;;;;;4.07;1.60;;;;;;;;;;5036385;28;20032;-89
2023/07/29 04:09:10;;;;;;;3.72;1.48;;;;;;;;;;5056263;28;20087;-89
2023/07/29 04:11:36;;;;;;;1.73;1.17;;;;;;;;;;5045021;28;20112;-88
2023/07/29 04:14:01;;;;;;;3.70;1.40;;;;;;;;;;5034207;28;20017;-88
2023/07/29 04:16:26;;;;;;;2.30;1.40;;;;;;;;;;5029138;28;20502;-88
2023/07/29 04:18:51;;;;;;;2.10;1.10;;;;;;;;;;5038646;28;20033;-88
2023/07/29 04:21:19;;;;;;;3.97;1.40;;;;;;;;;;5030672;28;20136;-88
2023/07/29 04:23:45;;;;;;;5.35;1.30;;;;;;;;;;5047483;28;20079;-88
2023/07/29 04:26:10;;;;;;;2.28;1.35;;;;;;;;;;5030183;28;20056;-88
2023/07/29 04:28:35;;;;;;;4.95;1.00;;;;;;;;;;5047486;28;20028;-88
2023/07/29 04:31:00;;;;;;;2.15;1.30;;;;;;;;;;5060784;28;20033;-89
2023/07/29 04:33:26;;;;;;;4.88;1.40;;;;;;;;;;5031763;28;20036;-88
2023/07/29 04:35:51;;;;;;;8.85;1.35;;;;;;;;;;5053669;28;20021;-88
2023/07/29 04:38:16;;;;;;;3.17;1.08;;;;;;;;;;5030987;28;20453;-89
2023/07/29 04:40:42;;;;;;;2.63;1.23;;;;;;;;;;5044880;28;20133;-88
2023/07/29 04:43:07;;;;;;;2.63;1.23;;;;;;;;;;5031468;28;20437;-89
2023/07/29 04:45:32;;;;;;;2.47;1.33;;;;;;;;;;5042673;28;20452;-89
2023/07/29 04:47:58;;;;;;;2.30;1.30;;;;;;;;;;5061465;28;20023;-89
2023/07/29 04:50:23;;;;;;;5.18;1.20;;;;;;;;;;5041147;28;20074;-89
2023/07/29 04:52:49;;;;;;;1.73;1.10;;;;;;;;;;5032369;28;20021;-89
2023/07/29 04:55:14;;;;;;;2.70;1.15;;;;;;;;;;5057795;28;20053;-89
2023/07/29 04:57:43;;;;;;;1.88;1.10;;;;;;;;;;5030016;28;20032;-89
2023/07/29 05:00:09;;;;;;;1.92;1.13;;;;;;;;;;5066904;28;20029;-89
2023/07/29 05:02:35;;;;;;;2.08;1.30;;;;;;;;;;5066208;28;20024;-88
2023/07/29 05:05:00;;;;;;;1.80;1.10;;;;;;;;;;5047586;28;20039;-89
2023/07/29 05:07:25;;;;;;;2.88;1.20;;;;;;;;;;5028394;28;20026;-89
2023/07/29 05:09:51;;;;;;;2.03;1.00;;;;;;;;;;5029801;28;20025;-88
2023/07/29 05:12:16;;;;;;;7.38;1.40;;;;;;;;;;5038359;28;20467;-89
2023/07/29 05:14:41;;;;;;;6.93;1.33;;;;;;;;;;5064016;28;20479;-88
2023/07/29 05:17:09;;;;;;;2.33;1.27;;;;;;;;;;5035576;28;20025;-89
2023/07/29 05:19:35;;;;;;;3.42;1.17;;;;;;;;;;5053183;28;20013;-89
2023/07/29 05:22:00;;;;;;;2.60;1.33;;;;;;;;;;5029828;28;20032;-88
2023/07/29 05:24:25;;;;;;;2.50;1.20;;;;;;;;;;5029511;28;20468;-89
2023/07/29 05:26:51;;;;;;;2.15;1.00;;;;;;;;;;5026957;28;20121;-88
2023/07/29 05:29:16;;;;;;;3.38;1.63;;;;;;;;;;5028966;28;20029;-89
2023/07/29 05:31:44;;;;;;;2.17;1.10;;;;;;;;;;5029169;28;20075;-88
2023/07/29 05:34:09;;;;;;;5.25;1.27;;;;;;;;;;5029262;28;20041;-88
2023/07/29 05:36:34;;;;;;;4.40;1.17;;;;;;;;;;5029947;28;20063;-89
2023/07/29 05:39:00;;;;;;;4.97;1.30;;;;;;;;;;5031760;28;20025;-88
2023/07/29 05:41:28;;;;;;;3.58;1.48;;;;;;;;;;5033577;28;20033;-88
2023/07/29 05:43:54;;;;;;;2.22;1.13;;;;;;;;;;5032602;28;20021;-89
2023/07/29 05:46:19;;;;;;;5.47;1.50;;;;;;;;;;5033339;28;20028;-87
2023/07/29 05:48:44;;;;;;;2.30;1.20;;;;;;;;;;5032717;28;20465;-88
2023/07/29 05:51:10;;;;;;;2.50;1.10;;;;;;;;;;5033412;28;20037;-89
2023/07/29 05:53:38;;;;;;;2.35;1.40;;;;;;;;;;5042915;28;20020;-88
2023/07/29 05:56:06;;;;;;;5.00;1.42;;;;;;;;;;5056030;28;20026;-88
2023/07/29 05:58:31;;;;;;;3.60;1.20;;;;;;;;;;5064420;28;20400;-88
2023/07/29 06:00:57;;;;;;;2.00;1.13;;;;;;;;;;5052084;28;20037;-88
2023/07/29 06:03:22;;;;;;;2.63;1.45;;;;;;;;;;5040946;28;20045;-89
2023/07/29 06:05:48;;;;;;;2.47;1.05;;;;;;;;;;5068616;28;20125;-89
2023/07/29 06:08:14;;;;;;;3.15;1.20;;;;;;;;;;5040730;28;20116;-88
2023/07/29 06:10:39;;;;;;;1.90;1.08;;;;;;;;;;5065609;28;20017;-89
2023/07/29 06:13:05;;;;;;;3.15;1.00;;;;;;;;;;5040170;28;20018;-88
2023/07/29 06:15:31;;;;;;;2.75;1.05;;;;;;;;;;5066655;28;20029;-88
2023/07/29 06:17:56;;;;;;;1.48;1.08;;;;;;;;;;5044554;28;20433;-88
2023/07/29 06:20:21;;;;;;;1.55;1.00;;;;;;;;;;5050180;28;20032;-88
2023/07/29 06:22:47;;;;;;;1.58;1.00;;;;;;;;;;5059321;28;20029;-88
2023/07/29 06:25:12;;;;;;;3.30;1.10;;;;;;;;;;5035819;28;20091;-89
2023/07/29 06:27:37;;;;;;;2.35;1.10;;;;;;;;;;5032257;28;20456;-88
2023/07/29 06:30:03;;;;;;;1.75;0.90;;;;;;;;;;5031648;28;20396;-86
2023/07/29 06:32:28;;;;;;;1.55;0.88;;;;;;;;;;5032483;28;20078;-88
2023/07/29 06:34:54;;;;;;;2.28;1.05;;;;;;;;;;5032420;28;20474;-88
2023/07/29 06:37:19;;;;;;;3.80;0.98;;;;;;;;;;5026370;28;20032;-89
2023/07/29 06:39:45;;;;;;;1.55;0.90;;;;;;;;;;5043297;28;20056;-89
2023/07/29 06:42:10;;;;;;;1.73;0.80;;;;;;;;;;5032401;28;20037;-88
2023/07/29 06:44:35;;;;;;;2.47;1.00;;;;;;;;;;5030708;28;20025;-89
2023/07/29 06:47:01;;;;;;;1.58;0.93;;;;;;;;;;5031243;28;20109;-88
2023/07/29 06:49:26;;;;;;;2.38;0.80;;;;;;;;;;5048132;28;20013;-88
2023/07/29 06:51:51;;;;;;;1.02;0.77;;;;;;;;;;5053280;28;20032;-88
2023/07/29 06:54:17;;;;;;;1.98;0.80;;;;;;;;;;5045482;28;20025;-89
2023/07/29 06:56:42;;;;;;;1.85;0.52;;;;;;;;;;5032658;28;20112;-88
2023/07/29 06:59:08;;;;;;;1.95;0.73;;;;;;;;;;5031084;28;20103;-88
2023/07/29 07:01:33;;;;;;;3.60;0.88;;;;;;;;;;5029924;28;20021;-88
2023/07/29 07:03:59;;;;;;;0.93;0.70;;;;;;;;;;5030562;28;20164;-89
2023/07/29 07:06:24;;;;;;;1.00;0.70;;;;;;;;;;5041547;28;20033;-88
2023/07/29 07:08:50;;;;;;;1.08;0.70;;;;;;;;;;5058518;28;20033;-88
2023/07/29 07:11:16;;;;;;;1.60;0.82;;;;;;;;;;5048555;28;20028;-88
2023/07/29 07:13:41;;;;;;;1.98;0.90;;;;;;;;;;5048579;28;20029;-88
2023/07/29 07:16:06;;;;;;;1.88;0.80;;;;;;;;;;5031647;28;20095;-88
2023/07/29 07:18:32;;;;;;;1.75;0.88;;;;;;;;;;5040039;28;20017;-88
2023/07/29 07:20:57;;;;;;;1.92;0.60;;;;;;;;;;5048436;28;20124;-88
2023/07/29 07:23:26;;;;;;;3.33;0.77;;;;;;;;;;5041379;28;20030;-88
2023/07/29 07:25:51;;;;;;;1.60;0.80;;;;;;;;;;5064688;28;20090;-87
2023/07/29 07:28:17;;;;;;;1.55;0.85;;;;;;;;;;5050299;28;20022;-88
2023/07/29 07:30:43;;;;;;;1.33;0.90;;;;;;;;;;5053215;28;20022;-87
2023/07/29 07:33:08;;;;;;;2.08;0.88;;;;;;;;;;5035043;28;20358;-88
2023/07/29 07:35:34;;;;;;;1.27;0.70;;;;;;;;;;5033731;28;20026;-88
2023/07/29 07:38:02;;;;;;;1.33;0.63;;;;;;;;;;5037353;28;20349;-89
2023/07/29 07:40:27;;;;;;;2.13;0.77;;;;;;;;;;5050963;28;20044;-92
2023/07/29 07:42:53;;;;;;;3.72;0.60;;;;;;;;;;5038143;28;20021;-84
2023/07/29 07:45:19;;;;;;;1.40;0.70;;;;;;;;;;5024927;28;20379;-89
2023/07/29 07:47:45;;;;;;;1.77;0.80;;;;;;;;;;5036102;28;20017;-92
2023/07/29 07:50:10;;;;;;;2.92;0.88;;;;;;;;;;5034670;28;20017;-92
2023/07/29 07:52:41;;;;;;;0.68;0.50;;;;;;;;;;5033613;28;20029;-91
2023/07/29 07:55:07;;;;;;;1.85;0.70;;;;;;;;;;5037648;28;20520;-91
2023/07/29 07:57:32;;;;;;;1.25;0.80;;;;;;;;;;5039118;28;20056;-92
2023/07/29 07:59:57;;;;;;;1.00;0.70;;;;;;;;;;5030703;28;20032;-92
2023/07/29 08:02:23;;;;;;;1.15;0.68;;;;;;;;;;5032977;28;20013;-92
2023/07/29 08:04:48;;;;;;;1.80;0.70;;;;;;;;;;5036403;28;20048;-91
2023/07/29 08:07:16;;;;;;;1.50;0.70;;;;;;;;;;5053147;28;20083;-92
2023/07/29 08:09:41;;;;;;;1.77;0.85;;;;;;;;;;5034214;28;20109;-92
2023/07/29 08:12:07;;;;;;;1.30;0.70;;;;;;;;;;5052378;28;20053;-90
2023/07/29 08:14:34;;;;;;;1.13;0.70;;;;;;;;;;5036014;28;20025;-91
2023/07/29 08:17:00;;;;;;;3.92;0.70;;;;;;;;;;5037640;28;20107;-92
2023/07/29 08:19:25;;;;;;;2.97;0.60;;;;;;;;;;5068242;28;20464;-92
2023/07/29 08:21:50;;;;;;;1.88;0.85;;;;;;;;;;5054065;28;20029;-92
2023/07/29 08:24:15;;;;;;;1.33;0.60;;;;;;;;;;5066290;28;20429;-92
2023/07/29 08:26:41;;;;;;;1.10;0.70;;;;;;;;;;5031900;28;20037;-91
2023/07/29 08:29:08;;;;;;;0.90;0.60;;;;;;;;;;5039081;28;20017;-92
2023/07/29 08:31:34;;;;;;;2.47;0.98;;;;;;;;;;5052551;28;20021;-92
2023/07/29 08:33:59;;;;;;;1.30;0.68;;;;;;;;;;5048016;28;20047;-92
2023/07/29 08:36:25;;;;;;;1.50;0.70;;;;;;;;;;5027521;28;20017;-92
2023/07/29 08:38:50;;;;;;;1.23;0.80;;;;;;;;;;5025041;28;20632;-92
2023/07/29 08:41:25;;;;;;;1.17;0.60;;;;;;;;;;5027958;28;20075;-91
2023/07/29 08:44:00;;;;;;;3.15;0.73;;;;;;;;;;5032698;28;20029;-92
2023/07/29 08:46:29;;;;;;;1.17;0.77;;;;;;;;;;5025395;28;20032;-92
2023/07/29 08:49:03;;;;;;;0.90;0.60;;;;;;;;;;5034100;28;20014;-91
2023/07/29 08:51:29;;;;;;;1.17;0.63;;;;;;;;;;5028723;28;20105;-91
2023/07/29 08:53:55;;;;;;;1.23;0.77;;;;;;;;;;5031272;28;20048;-91
2023/07/29 08:56:20;;;;;;;1.08;0.60;;;;;;;;;;5029623;28;20021;-91
2023/07/29 08:58:46;;;;;;;0.68;0.50;;;;;;;;;;5028565;28;20472;-92
2023/07/29 09:01:11;;;;;;;0.80;0.60;;;;;;;;;;5032628;28;20056;-91
2023/07/29 09:03:37;;;;;;;1.20;0.50;;;;;;;;;;5033525;28;20040;-91
2023/07/29 09:06:03;;;;;;;1.35;0.60;;;;;;;;;;5029724;28;20112;-92
2023/07/29 09:08:28;;;;;;;1.33;0.50;;;;;;;;;;5031099;28;20394;-92
2023/07/29 09:10:54;;;;;;;6.22;0.68;;;;;;;;;;5031020;28;20029;-91
2023/07/29 09:13:20;;;;;;;0.60;0.45;;;;;;;;;;5032530;28;20381;-91
2023/07/29 09:15:46;;;;;;;1.35;0.50;;;;;;;;;;5031095;28;20030;-91
2023/07/29 09:18:16;;;;;;;0.82;0.50;;;;;;;;;;5034535;28;20445;-91
2023/07/29 09:20:41;;;;;;;0.85;0.43;;;;;;;;;;5035672;28;20108;-91
2023/07/29 09:23:08;;;;;;;1.45;0.70;;;;;;;;;;5050851;28;20025;-91
2023/07/29 09:25:34;;;;;;;0.90;0.50;;;;;;;;;;5036290;28;20033;-91
2023/07/29 09:28:02;;;;;;;0.80;0.50;;;;;;;;;;5035286;28;20021;-92
2023/07/29 09:30:28;;;;;;;0.88;0.60;;;;;;;;;;5048503;28;20042;-91
2023/07/29 09:33:04;;;;;;;1.63;0.77;;;;;;;;;;5033931;28;20232;-92
2023/07/29 09:35:29;;;;;;;3.08;0.80;;;;;;;;;;5037625;28;20017;-91
2023/07/29 09:37:55;;;;;;;1.95;0.63;;;;;;;;;;5033037;28;20033;-91
2023/07/29 09:40:20;;;;;;;2.30;0.98;;;;;;;;;;5026804;28;20041;-92
2023/07/29 09:42:50;;;;;;;1.65;0.77;;;;;;;;;;5033048;28;20017;-92
2023/07/29 09:45:25;;;;;;;0.90;0.60;;;;;;;;;;5033335;28;20128;-92
2023/07/29 09:47:53;;;;;;;2.28;0.75;;;;;;;;;;5034326;28;20028;-92
2023/07/29 09:50:22;;;;;;;2.88;0.90;;;;;;;;;;5042866;28;20204;-91
2023/07/29 09:52:48;;;;;;;2.63;1.00;;;;;;;;;;5063601;28;20465;-92
2023/07/29 09:55:16;;;;;;;1.10;0.73;;;;;;;;;;5070223;28;20103;-92
2023/07/29 09:57:42;;;;;;;1.85;0.90;;;;;;;;;;5069900;28;20137;-92
2023/07/29 10:00:10;;;;;;;2.35;0.90;;;;;;;;;;5055891;28;20033;-92
2023/07/29 10:02:36;;;;;;;1.60;0.93;;;;;;;;;;5032989;28;20113;-92
2023/07/29 10:05:03;;;;;;;5.15;1.20;;;;;;;;;;5038288;28;20112;-92
2023/07/29 10:07:29;;;;;;;1.85;1.00;;;;;;;;;;5058201;28;20339;-92
2023/07/29 10:09:54;;;;;;;4.20;1.25;;;;;;;;;;5041765;28;20033;-92
2023/07/29 10:12:20;;;;;;;2.30;0.95;;;;;;;;;;5032631;28;20052;-92
2023/07/29 10:14:47;;;;;;;1.50;0.88;;;;;;;;;;5033976;28;20024;-92
2023/07/29 10:17:13;;;;;;;1.77;0.90;;;;;;;;;;5069773;28;20013;-92
2023/07/29 10:19:39;;;;;;;1.77;1.00;;;;;;;;;;5054767;28;20036;-92
2023/07/29 10:22:05;;;;;;;1.70;0.95;;;;;;;;;;5052398;28;20415;-92
2023/07/29 10:24:32;;;;;;;2.92;1.20;;;;;;;;;;5057421;28;20030;-92
2023/07/29 10:26:58;;;;;;;1.42;0.90;;;;;;;;;;5052226;28;20467;-92
2023/07/29 10:29:23;;;;;;;1.40;0.90;;;;;;;;;;5069294;28;20013;-92
2023/07/29 10:31:52;;;;;;;4.78;1.17;;;;;;;;;;5054822;28;20032;-92
2023/07/29 10:34:17;;;;;;;3.00;1.20;;;;;;;;;;5061295;28;20105;-92
2023/07/29 10:36:42;;;;;;;4.45;1.08;;;;;;;;;;5032930;28;20108;-92
2023/07/29 10:39:10;;;;;;;1.98;1.10;;;;;;;;;;5070163;28;20017;-92
2023/07/29 10:41:54;;;;;;;3.78;1.10;;;;;;;;;;5069895;28;20027;-92
2023/07/29 10:44:38;;;;;;;3.63;1.08;;;;;;;;;;5069391;28;20083;-92
2023/07/29 10:47:10;;;;;;;1.33;0.90;;;;;;;;;;5069695;28;20404;-92
2023/07/29 10:49:36;;;;;;;4.15;1.17;;;;;;;;;;5069256;28;20573;-92
2023/07/29 10:52:01;;;;;;;1.75;0.77;;;;;;;;;;5062325;28;20076;-92
2023/07/29 10:54:26;;;;;;;2.90;1.00;;;;;;;;;;5048104;28;20127;-92
2023/07/29 10:56:54;;;;;;;1.20;0.70;;;;;;;;;;5053233;28;20081;-92
2023/07/29 10:59:20;;;;;;;1.40;0.90;;;;;;;;;;5043869;28;20020;-92
2023/07/29 11:01:52;;;;;;;2.25;1.08;;;;;;;;;;5063573;28;20093;-92
2023/07/29 11:04:21;;;;;;;1.80;1.10;;;;;;;;;;5019568;28;20050;-91
2023/07/29 11:07:06;;;;;;;3.28;1.15;;;;;;;;;;5048463;28;20072;-91
2023/07/29 11:09:41;;;;;;;3.00;1.10;;;;;;;;;;5046817;28;20036;-92
2023/07/29 11:12:26;;;;;;;1.58;1.00;;;;;;;;;;5062001;28;20412;-91
2023/07/29 11:14:52;;;;;;;2.25;1.20;;;;;;;;;;5021556;28;20413;-92
2023/07/29 11:17:17;;;;;;;1.83;1.13;;;;;;;;;;5059215;28;20029;-92
2023/07/29 11:19:43;;;;;;;1.48;1.00;;;;;;;;;;5034708;28;20075;-92
2023/07/29 11:22:09;;;;;;;2.15;1.25;;;;;;;;;;5060657;28;20020;-91
2023/07/29 11:24:34;;;;;;;1.55;1.02;;;;;;;;;;5045126;28;20021;-92
2023/07/29 11:27:00;;;;;;;1.45;0.98;;;;;;;;;;5051035;28;20480;-92
2023/07/29 11:29:25;;;;;;;1.30;0.90;;;;;;;;;;5030830;28;20136;-92
2023/07/29 11:31:54;;;;;;;1.08;0.70;;;;;;;;;;5034463;28;20013;-92
2023/07/29 11:34:30;;;;;;;1.42;0.95;;;;;;;;;;5035492;28;20318;-92
2023/07/29 11:36:55;;;;;;;2.47;1.17;;;;;;;;;;5037596;28;20027;-91
2023/07/29 11:39:23;;;;;;;2.92;0.90;;;;;;;;;;5059936;28;20037;-92
2023/07/29 11:41:48;;;;;;;1.70;1.00;;;;;;;;;;5037071;28;20029;-92
2023/07/29 11:44:17;;;;;;;2.03;1.15;;;;;;;;;;5059620;28;20124;-93
2023/07/29 11:46:43;;;;;;;2.15;1.13;;;;;;;;;;5046530;28;20049;-92
2023/07/29 11:49:08;;;;;;;1.98;1.10;;;;;;;;;;5056480;28;20103;-91
2023/07/29 11:51:33;;;;;;;4.78;1.30;;;;;;;;;;5039487;28;20037;-91
2023/07/29 11:53:59;;;;;;;3.67;1.10;;;;;;;;;;5040430;28;20106;-92
2023/07/29 11:56:25;;;;;;;2.03;1.20;;;;;;;;;;5047050;28;20444;-92
2023/07/29 11:58:50;;;;;;;3.38;1.63;;;;;;;;;;5032365;28;20036;-92
2023/07/29 12:01:16;;;;;;;2.95;1.55;;;;;;;;;;5034868;28;20017;-91
2023/07/29 12:03:44;;;;;;;2.63;1.30;;;;;;;;;;5063805;28;20843;-92
2023/07/29 12:06:09;;;;;;;3.75;1.30;;;;;;;;;;5032234;28;20105;-93
2023/07/29 12:08:35;;;;;;;2.08;1.27;;;;;;;;;;5025826;28;20022;-93
2023/07/29 12:11:00;;;;;;;2.33;1.35;;;;;;;;;;5047932;28;20013;-92
2023/07/29 12:13:26;;;;;;;3.17;1.40;;;;;;;;;;5031006;28;20014;-92
2023/07/29 12:15:51;;;;;;;3.03;1.40;;;;;;;;;;5031515;28;20030;-92
2023/07/29 12:18:29;;;;;;;3.15;1.33;;;;;;;;;;5031183;28;20026;-92
2023/07/29 12:20:54;;;;;;;7.78;1.80;;;;;;;;;;5031401;28;20041;-91
2023/07/29 12:23:23;;;;;;;2.40;1.45;;;;;;;;;;5029623;28;20117;-91
2023/07/29 12:25:51;;;;;;;3.75;1.80;;;;;;;;;;5024984;28;20024;-92
2023/07/29 12:28:19;;;;;;;3.80;1.85;;;;;;;;;;5029231;28;20040;-91
2023/07/29 12:30:44;;;;;;;2.80;1.73;;;;;;;;;;5031474;28;20109;-92
2023/07/29 12:33:10;;;;;;;1.58;1.17;;;;;;;;;;5033300;28;20045;-92
2023/07/29 12:35:36;;;;;;;2.08;1.55;;;;;;;;;;5031913;28;20067;-93
2023/07/29 12:38:01;;;;;;;1.60;1.30;;;;;;;;;;5031216;28;20369;-92
2023/07/29 12:40:27;;;;;;;2.53;1.75;;;;;;;;;;5031560;28;20258;-91
2023/07/29 12:42:53;;;;;;;2.42;1.15;;;;;;;;;;5031058;28;20052;-91
2023/07/29 12:45:18;;;;;;;2.53;1.55;;;;;;;;;;5031262;28;20029;-91
2023/07/29 12:47:43;;;;;;;3.15;1.35;;;;;;;;;;5030757;28;20009;-92
2023/07/29 12:50:09;;;;;;;2.75;1.50;;;;;;;;;;5021505;28;20504;-91
2023/07/29 12:52:34;;;;;;;2.22;1.38;;;;;;;;;;5030819;28;20091;-91
2023/07/29 12:55:00;;;;;;;2.58;1.40;;;;;;;;;;5037152;28;20112;-92
2023/07/29 12:57:25;;;;;;;2.38;1.63;;;;;;;;;;5030718;28;20084;-92
2023/07/29 12:59:50;;;;;;;1.63;1.17;;;;;;;;;;5016927;28;20495;-91
2023/07/29 13:02:15;;;;;;;1.92;1.25;;;;;;;;;;5041821;28;20032;-91
2023/07/29 13:04:41;;;;;;;2.83;1.65;;;;;;;;;;5045842;28;20060;-91
2023/07/29 13:07:09;;;;;;;1.92;1.40;;;;;;;;;;5030669;28;20044;-92
2023/07/29 13:09:37;;;;;;;3.00;0.95;;;;;;;;;;5019727;28;20093;-90
2023/07/29 13:12:03;;;;;;;1.75;1.23;;;;;;;;;;5032615;28;20020;-91
2023/07/29 13:14:28;;;;;;;1.63;1.10;;;;;;;;;;5030586;28;20514;-91
2023/07/29 13:16:54;;;;;;;1.42;1.02;;;;;;;;;;5027370;28;20330;-91
2023/07/29 13:19:19;;;;;;;0.75;0.57;;;;;;;;;;5034525;28;20029;-91
2023/07/29 13:21:44;;;;;;;1.25;0.95;;;;;;;;;;5032156;28;20496;-91
2023/07/29 13:24:10;;;;;;;2.15;1.30;;;;;;;;;;5041425;28;20126;-91
2023/07/29 13:26:35;;;;;;;4.72;1.13;;;;;;;;;;5059093;28;20075;-92
2023/07/29 13:29:00;;;;;;;1.67;1.23;;;;;;;;;;5034680;28;20025;-90
2023/07/29 13:31:26;;;;;;;1.10;0.73;;;;;;;;;;5029446;28;20496;-91
2023/07/29 13:33:51;;;;;;;1.08;0.95;;;;;;;;;;5034456;28;20020;-91
2023/07/29 13:36:16;;;;;;;1.83;1.10;;;;;;;;;;5055734;28;20530;-91
2023/07/29 13:38:41;;;;;;;2.05;1.10;;;;;;;;;;5017056;28;20084;-92
2023/07/29 13:41:07;;;;;;;1.33;1.00;;;;;;;;;;5038591;28;20523;-92
2023/07/29 13:43:32;;;;;;;1.83;1.30;;;;;;;;;;5051987;28;20021;-91
2023/07/29 13:45:57;;;;;;;2.00;1.23;;;;;;;;;;5035717;28;20039;-92
2023/07/29 13:48:23;;;;;;;1.63;1.30;;;;;;;;;;5030550;28;20097;-91
2023/07/29 13:50:48;;;;;;;2.42;1.33;;;;;;;;;;5030305;28;20120;-92
2023/07/29 13:53:13;;;;;;;1.60;1.20;;;;;;;;;;5067544;28;20017;-92
2023/07/29 13:55:39;;;;;;;1.63;1.20;;;;;;;;;;5061557;28;20025;-91
2023/07/29 13:58:04;;;;;;;2.03;1.25;;;;;;;;;;5041011;28;20022;-92
2023/07/29 14:00:29;;;;;;;2.20;1.58;;;;;;;;;;5032662;28;20453;-92
2023/07/29 14:02:55;;;;;;;2.05;1.50;;;;;;;;;;5034058;28;20499;-92
2023/07/29 14:05:20;;;;;;;3.70;1.38;;;;;;;;;;5035022;28;20104;-91
2023/07/29 14:07:45;;;;;;;3.88;1.42;;;;;;;;;;5034580;28;20373;-91
2023/07/29 14:10:11;;;;;;;3.15;1.38;;;;;;;;;;5034845;28;20026;-92
2023/07/29 14:12:36;;;;;;;1.83;1.25;;;;;;;;;;5033007;28;20021;-91
2023/07/29 14:15:01;;;;;;;2.17;1.30;;;;;;;;;;5025303;28;20080;-92
2023/07/29 14:17:35;;;;;;;3.88;1.50;;;;;;;;;;5034388;28;20025;-91
2023/07/29 14:20:01;;;;;;;1.85;1.15;;;;;;;;;;5034958;28;20028;-93
2023/07/29 14:22:26;;;;;;;1.90;1.25;;;;;;;;;;5034875;28;20026;-93
2023/07/29 14:24:52;;;;;;;2.63;1.48;;;;;;;;;;5034663;28;20013;-93
2023/07/29 14:27:17;;;;;;;2.70;1.15;;;;;;;;;;5034067;28;20025;-93
2023/07/29 14:29:42;;;;;;;2.20;1.40;;;;;;;;;;5033461;28;20029;-93
2023/07/29 14:32:08;;;;;;;4.20;1.40;;;;;;;;;;5034766;28;20026;-93
2023/07/29 14:34:33;;;;;;;1.92;1.40;;;;;;;;;;5034702;28;20022;-93
2023/07/29 14:37:01;;;;;;;2.50;1.20;;;;;;;;;;5034298;28;20025;-92
2023/07/29 14:39:26;;;;;;;1.50;1.10;;;;;;;;;;5034523;28;20079;-93